createdAt,value
2023-01-17T00:00:20.060Z,79.00
2023-01-17T00:01:20.013Z,78.87
2023-01-17T00:02:20.063Z,79.91
2023-01-17T00:03:19.939Z,79.65
2023-01-17T00:04:19.978Z,79.34
2023-01-17T00:05:19.919Z,79.46
2023-01-17T00:06:19.931Z,79.62
2023-01-17T00:07:19.926Z,79.80
2023-01-17T00:08:19.922Z,80.28
2023-01-17T00:09:19.871Z,80.41
2023-01-17T00:10:19.871Z,79.71
2023-01-17T00:11:19.840Z,79.30
2023-01-17T00:12:19.851Z,79.14
2023-01-17T00:13:19.846Z,79.16
2023-01-17T00:14:19.927Z,79.39
2023-01-17T00:15:19.893Z,79.64
2023-01-17T00:16:20.021Z,79.99
2023-01-17T00:17:19.781Z,80.12
2023-01-17T00:18:19.792Z,79.91
2023-01-17T00:19:19.931Z,79.89
2023-01-17T00:20:20.338Z,80.09
2023-01-17T00:21:19.730Z,80.11
2023-01-17T00:22:19.937Z,79.29
2023-01-17T00:23:19.722Z,78.91
2023-01-17T00:24:19.724Z,78.90
2023-01-17T00:25:19.905Z,78.95
2023-01-17T00:26:19.731Z,79.00
2023-01-17T00:27:19.668Z,78.93
2023-01-17T00:28:19.754Z,79.07
2023-01-17T00:29:19.650Z,79.23
2023-01-17T00:30:19.941Z,78.40
2023-01-17T00:31:19.986Z,78.51
2023-01-17T00:32:19.609Z,78.73
2023-01-17T00:33:19.601Z,78.92
2023-01-17T00:34:19.630Z,79.33
2023-01-17T00:35:19.566Z,79.73
2023-01-17T00:36:19.953Z,79.64
2023-01-17T00:37:19.942Z,79.87
2023-01-17T00:38:19.947Z,79.18
2023-01-17T00:39:19.522Z,79.20
2023-01-17T00:40:19.536Z,79.23
2023-01-17T00:41:19.925Z,78.80
2023-01-17T00:42:19.512Z,78.66
2023-01-17T00:43:19.503Z,78.61
2023-01-17T00:44:19.971Z,78.58
2023-01-17T00:45:19.468Z,78.60
2023-01-17T00:46:19.596Z,78.62
2023-01-17T00:47:19.441Z,78.87
2023-01-17T00:48:19.431Z,79.38
2023-01-17T00:49:19.411Z,79.49
2023-01-17T00:50:19.412Z,79.52
2023-01-17T00:51:19.385Z,79.54
2023-01-17T00:52:19.572Z,79.62
2023-01-17T00:53:19.369Z,79.73
2023-01-17T00:54:19.605Z,79.94
2023-01-17T00:55:19.584Z,80.11
2023-01-17T00:56:19.337Z,80.13
2023-01-17T00:57:19.368Z,79.83
2023-01-17T00:58:19.329Z,79.19
2023-01-17T00:59:19.296Z,79.23
2023-01-17T01:00:19.318Z,79.30
2023-01-17T01:01:19.429Z,79.55
2023-01-17T01:02:19.405Z,79.64
2023-01-17T01:03:19.283Z,79.61
2023-01-17T01:04:19.265Z,79.58
2023-01-17T01:05:19.242Z,79.43
2023-01-17T01:06:19.231Z,79.50
2023-01-17T01:07:19.205Z,78.53
2023-01-17T01:08:19.369Z,78.51
2023-01-17T01:09:19.177Z,79.04
2023-01-17T01:10:19.216Z,79.32
2023-01-17T01:11:19.262Z,79.37
2023-01-17T01:12:19.171Z,78.57
2023-01-17T01:13:19.136Z,78.47
2023-01-17T01:14:19.675Z,78.41
2023-01-17T01:15:19.119Z,78.28
2023-01-17T01:16:19.794Z,77.97
2023-01-17T01:17:19.080Z,78.00
2023-01-17T01:18:19.736Z,77.41
2023-01-17T01:19:19.065Z,77.72
2023-01-17T01:20:19.081Z,77.65
2023-01-17T01:21:19.354Z,77.67
2023-01-17T01:22:19.046Z,78.12
2023-01-17T01:23:19.102Z,77.40
2023-01-17T01:24:19.792Z,77.48
2023-01-17T01:25:19.002Z,77.61
2023-01-17T01:26:19.002Z,78.13
2023-01-17T01:27:18.977Z,78.06
2023-01-17T01:28:18.984Z,77.54
2023-01-17T01:29:18.983Z,77.26
2023-01-17T01:30:18.968Z,77.26
2023-01-17T01:31:19.027Z,77.52
2023-01-17T01:32:18.996Z,78.02
2023-01-17T01:33:18.938Z,78.28
2023-01-17T01:34:18.985Z,78.29
2023-01-17T01:35:18.988Z,78.48
2023-01-17T01:36:18.893Z,78.76
2023-01-17T01:37:18.851Z,78.83
2023-01-17T01:38:18.865Z,78.65
2023-01-17T01:39:18.944Z,78.45
2023-01-17T01:40:18.975Z,78.40
2023-01-17T01:41:18.807Z,78.26
2023-01-17T01:42:19.046Z,77.45
2023-01-17T01:43:18.786Z,77.81
2023-01-17T01:44:18.796Z,78.07
2023-01-17T01:45:19.129Z,78.27
2023-01-17T01:46:18.771Z,78.13
2023-01-17T01:47:18.745Z,78.11
2023-01-17T01:48:18.773Z,78.08
2023-01-17T01:49:18.706Z,77.85
2023-01-17T01:50:18.912Z,77.69
2023-01-17T01:51:19.002Z,77.04
2023-01-17T01:52:18.703Z,76.38
2023-01-17T01:53:18.670Z,76.52
2023-01-17T01:54:18.692Z,76.62
2023-01-17T01:55:18.679Z,75.82
2023-01-17T01:56:18.763Z,75.86
2023-01-17T01:57:18.632Z,75.75
2023-01-17T01:58:18.823Z,75.91
2023-01-17T01:59:18.837Z,74.96
2023-01-17T02:00:18.616Z,75.22
2023-01-17T02:01:18.691Z,74.93
2023-01-17T02:02:18.626Z,72.95
2023-01-17T02:03:18.704Z,73.49
2023-01-17T02:04:18.890Z,73.79
2023-01-17T02:05:18.523Z,73.81
2023-01-17T02:06:19.008Z,73.50
2023-01-17T02:07:18.505Z,73.48
2023-01-17T02:08:18.515Z,73.42
2023-01-17T02:09:19.006Z,72.16
2023-01-17T02:10:18.513Z,72.08
2023-01-17T02:11:18.472Z,72.48
2023-01-17T02:12:18.946Z,72.50
2023-01-17T02:13:18.434Z,72.12
2023-01-17T02:14:19.402Z,70.85
2023-01-17T02:15:18.784Z,70.94
2023-01-17T02:16:18.445Z,71.32
2023-01-17T02:17:18.385Z,71.42
2023-01-17T02:18:18.396Z,71.23
2023-01-17T02:19:19.018Z,70.65
2023-01-17T02:20:18.519Z,70.40
2023-01-17T02:21:18.345Z,70.47
2023-01-17T02:22:18.975Z,70.73
2023-01-17T02:23:19.018Z,70.45
2023-01-17T02:24:18.451Z,70.45
2023-01-17T02:25:18.304Z,70.43
2023-01-17T02:26:18.309Z,69.70
2023-01-17T02:27:18.274Z,69.77
2023-01-17T02:28:18.407Z,70.20
2023-01-17T02:29:18.243Z,70.45
2023-01-17T02:30:18.457Z,70.64
2023-01-17T02:31:18.311Z,70.07
2023-01-17T02:32:18.240Z,69.59
2023-01-17T02:33:18.190Z,70.07
2023-01-17T02:34:18.221Z,70.43
2023-01-17T02:35:18.601Z,71.35
2023-01-17T02:36:18.635Z,71.90
2023-01-17T02:37:18.167Z,72.20
2023-01-17T02:38:18.698Z,72.26
2023-01-17T02:39:18.138Z,72.26
2023-01-17T02:40:18.140Z,72.09
2023-01-17T02:41:18.125Z,71.94
2023-01-17T02:42:18.128Z,71.97
2023-01-17T02:43:18.320Z,72.75
2023-01-17T02:44:18.098Z,72.78
2023-01-17T02:45:18.908Z,71.92
2023-01-17T02:46:18.076Z,70.55
2023-01-17T02:47:18.036Z,70.68
2023-01-17T02:48:18.070Z,71.14
2023-01-17T02:49:18.038Z,71.83
2023-01-17T02:50:18.049Z,71.28
2023-01-17T02:51:17.993Z,70.76
2023-01-17T02:52:18.040Z,70.83
2023-01-17T02:53:17.995Z,71.16
2023-01-17T02:54:18.009Z,71.60
2023-01-17T02:55:18.288Z,72.04
2023-01-17T02:56:17.974Z,72.13
2023-01-17T02:57:17.924Z,72.05
2023-01-17T02:58:17.945Z,71.95
2023-01-17T02:59:17.914Z,71.70
2023-01-17T03:00:18.058Z,71.76
2023-01-17T03:01:18.529Z,71.86
2023-01-17T03:02:18.130Z,71.94
2023-01-17T03:03:17.866Z,71.43
2023-01-17T03:04:17.967Z,71.70
2023-01-17T03:05:20.196Z,71.90
2023-01-17T03:06:17.860Z,71.92
2023-01-17T03:07:18.301Z,72.40
2023-01-17T03:08:18.050Z,72.72
2023-01-17T03:09:17.794Z,73.07
2023-01-17T03:10:18.066Z,73.48
2023-01-17T03:11:18.316Z,73.74
2023-01-17T03:12:17.773Z,74.07
2023-01-17T03:13:17.743Z,74.39
2023-01-17T03:14:17.751Z,75.19
2023-01-17T03:15:17.805Z,75.89
2023-01-17T03:16:17.873Z,76.17
2023-01-17T03:17:17.708Z,76.55
2023-01-17T03:18:17.709Z,76.58
2023-01-17T03:19:17.683Z,76.66
2023-01-17T03:20:17.703Z,76.84
2023-01-17T03:21:17.653Z,76.83
2023-01-17T03:22:17.671Z,76.84
2023-01-17T03:23:18.042Z,76.81
2023-01-17T03:24:17.638Z,76.90
2023-01-17T03:25:17.627Z,77.13
2023-01-17T03:26:17.647Z,77.13
2023-01-17T03:27:17.585Z,77.00
2023-01-17T03:28:17.600Z,76.88
2023-01-17T03:29:18.065Z,76.95
2023-01-17T03:30:17.576Z,77.15
2023-01-17T03:31:17.542Z,77.14
2023-01-17T03:32:18.068Z,77.11
2023-01-17T03:33:17.522Z,77.25
2023-01-17T03:34:17.653Z,77.32
2023-01-17T03:35:17.973Z,77.40
2023-01-17T03:36:17.986Z,77.58
2023-01-17T03:37:18.075Z,77.79
2023-01-17T03:38:17.667Z,77.95
2023-01-17T03:39:17.448Z,78.02
2023-01-17T03:40:17.467Z,78.07
2023-01-17T03:41:17.477Z,78.04
2023-01-17T03:42:17.510Z,77.99
2023-01-17T03:43:17.406Z,77.98
2023-01-17T03:44:17.431Z,78.01
2023-01-17T03:45:17.451Z,78.16
2023-01-17T03:46:17.371Z,78.20
2023-01-17T03:47:17.642Z,78.21
2023-01-17T03:48:17.657Z,78.25
2023-01-17T03:49:17.350Z,78.27
2023-01-17T03:50:17.713Z,78.23
2023-01-17T03:51:17.454Z,78.07
2023-01-17T03:52:17.306Z,78.01
2023-01-17T03:53:17.429Z,78.06
2023-01-17T03:54:17.292Z,78.21
2023-01-17T03:55:17.304Z,78.46
2023-01-17T03:56:17.282Z,78.76
2023-01-17T03:57:17.893Z,78.94
2023-01-17T03:58:17.923Z,79.06
2023-01-17T03:59:17.944Z,79.19
2023-01-17T04:00:17.965Z,79.21
2023-01-17T04:01:17.820Z,79.35
2023-01-17T04:02:17.235Z,79.63
2023-01-17T04:03:17.273Z,79.70
2023-01-17T04:04:17.281Z,79.74
2023-01-17T04:05:17.322Z,79.74
2023-01-17T04:06:17.351Z,79.84
2023-01-17T04:07:17.388Z,79.74
2023-01-17T04:08:17.139Z,79.80
2023-01-17T04:09:17.133Z,79.66
2023-01-17T04:10:17.098Z,79.26
2023-01-17T04:11:17.118Z,79.11
2023-01-17T04:12:17.099Z,79.06
2023-01-17T04:13:17.089Z,79.04
2023-01-17T04:14:17.095Z,79.05
2023-01-17T04:15:17.098Z,79.14
2023-01-17T04:16:17.140Z,79.29
2023-01-17T04:17:17.039Z,79.41
2023-01-17T04:18:17.102Z,78.60
2023-01-17T04:19:17.101Z,78.19
2023-01-17T04:20:16.985Z,78.33
2023-01-17T04:21:17.106Z,78.56
2023-01-17T04:22:16.990Z,78.45
2023-01-17T04:23:16.972Z,78.19
2023-01-17T04:24:18.059Z,77.95
2023-01-17T04:25:16.949Z,77.58
2023-01-17T04:26:16.938Z,77.35
2023-01-17T04:27:17.031Z,77.23
2023-01-17T04:28:17.115Z,77.46
2023-01-17T04:29:17.109Z,77.88
2023-01-17T04:30:17.114Z,78.05
2023-01-17T04:31:17.293Z,78.42
2023-01-17T04:32:17.171Z,78.70
2023-01-17T04:33:17.034Z,79.20
2023-01-17T04:34:16.842Z,79.37
2023-01-17T04:35:16.891Z,79.46
2023-01-17T04:36:16.879Z,79.58
2023-01-17T04:37:16.815Z,79.80
2023-01-17T04:38:16.788Z,79.88
2023-01-17T04:39:16.980Z,79.84
2023-01-17T04:40:16.765Z,79.66
2023-01-17T04:41:16.763Z,79.60
2023-01-17T04:42:16.755Z,79.67
2023-01-17T04:43:17.081Z,79.63
2023-01-17T04:44:16.731Z,79.63
2023-01-17T04:45:17.114Z,79.31
2023-01-17T04:46:17.157Z,79.17
2023-01-17T04:47:16.719Z,79.04
2023-01-17T04:48:16.667Z,79.00
2023-01-17T04:49:16.683Z,78.49
2023-01-17T04:50:16.645Z,77.93
2023-01-17T04:51:16.674Z,77.94
2023-01-17T04:52:16.742Z,78.09
2023-01-17T04:53:16.635Z,78.05
2023-01-17T04:54:16.611Z,78.00
2023-01-17T04:55:16.605Z,78.01
2023-01-17T04:56:16.891Z,78.04
2023-01-17T04:57:16.578Z,78.31
2023-01-17T04:58:16.566Z,78.54
2023-01-17T04:59:16.963Z,78.69
2023-01-17T05:00:16.835Z,78.83
2023-01-17T05:01:16.671Z,78.94
2023-01-17T05:02:16.581Z,78.96
2023-01-17T05:03:16.522Z,78.97
2023-01-17T05:04:16.500Z,79.01
2023-01-17T05:05:16.484Z,79.01
2023-01-17T05:06:16.475Z,79.02
2023-01-17T05:07:17.137Z,79.05
2023-01-17T05:08:17.130Z,79.10
2023-01-17T05:09:16.472Z,79.18
2023-01-17T05:10:16.418Z,79.18
2023-01-17T05:11:16.472Z,79.24
2023-01-17T05:12:16.401Z,79.34
2023-01-17T05:13:16.402Z,79.38
2023-01-17T05:14:16.369Z,79.39
2023-01-17T05:15:17.144Z,79.40
2023-01-17T05:16:16.461Z,79.32
2023-01-17T05:17:17.149Z,79.33
2023-01-17T05:18:16.331Z,79.38
2023-01-17T05:19:16.332Z,79.49
2023-01-17T05:20:17.109Z,79.57
2023-01-17T05:21:16.313Z,79.68
2023-01-17T05:22:16.283Z,79.87
2023-01-17T05:23:17.150Z,79.87
2023-01-17T05:24:16.266Z,79.79
2023-01-17T05:25:16.253Z,79.84
2023-01-17T05:26:17.039Z,79.89
2023-01-17T05:27:16.244Z,79.94
2023-01-17T05:28:16.226Z,80.05
2023-01-17T05:29:16.270Z,80.12
2023-01-17T05:30:16.190Z,80.17
2023-01-17T05:31:16.216Z,80.21
2023-01-17T05:32:16.184Z,80.30
2023-01-17T05:33:16.173Z,80.31
2023-01-17T05:34:16.139Z,80.33
2023-01-17T05:35:16.152Z,80.39
2023-01-17T05:36:16.270Z,80.50
2023-01-17T05:37:16.138Z,80.53
2023-01-17T05:38:16.105Z,80.63
2023-01-17T05:39:16.157Z,80.68
2023-01-17T05:40:16.078Z,80.76
2023-01-17T05:41:16.073Z,80.80
2023-01-17T05:42:16.150Z,80.91
2023-01-17T05:43:16.064Z,80.99
2023-01-17T05:44:16.055Z,81.07
2023-01-17T05:45:16.041Z,81.13
2023-01-17T05:46:16.082Z,81.22
2023-01-17T05:47:16.165Z,81.32
2023-01-17T05:48:15.991Z,81.31
2023-01-17T05:49:15.992Z,81.36
2023-01-17T05:50:15.961Z,81.38
2023-01-17T05:51:15.973Z,81.46
2023-01-17T05:52:15.935Z,81.51
2023-01-17T05:53:15.938Z,81.57
2023-01-17T05:54:15.943Z,81.61
2023-01-17T05:55:16.167Z,81.70
2023-01-17T05:56:15.957Z,81.79
2023-01-17T05:57:15.902Z,81.91
2023-01-17T05:58:15.881Z,81.96
2023-01-17T05:59:18.776Z,81.89
2023-01-17T06:00:15.870Z,81.41
2023-01-17T06:01:15.910Z,81.49
2023-01-17T06:02:15.842Z,81.45
2023-01-17T06:03:16.174Z,81.43
2023-01-17T06:04:15.837Z,81.42
2023-01-17T06:05:15.821Z,81.55
2023-01-17T06:06:15.780Z,81.59
2023-01-17T06:07:15.792Z,81.72
2023-01-17T06:08:15.765Z,81.87
2023-01-17T06:09:15.756Z,81.94
2023-01-17T06:10:15.743Z,82.08
2023-01-17T06:11:16.191Z,82.07
2023-01-17T06:12:15.720Z,82.10
2023-01-17T06:13:15.726Z,82.15
2023-01-17T06:14:15.696Z,82.33
2023-01-17T06:15:15.735Z,82.37
2023-01-17T06:16:15.704Z,82.49
2023-01-17T06:17:15.691Z,82.43
2023-01-17T06:18:15.656Z,82.35
2023-01-17T06:19:15.815Z,82.23
2023-01-17T06:20:15.657Z,82.23
2023-01-17T06:21:15.629Z,82.41
2023-01-17T06:22:15.602Z,82.80
2023-01-17T06:23:15.600Z,83.35
2023-01-17T06:24:15.585Z,83.54
2023-01-17T06:25:15.590Z,83.64
2023-01-17T06:26:15.560Z,83.80
2023-01-17T06:27:15.575Z,84.03
2023-01-17T06:28:15.533Z,84.10
2023-01-17T06:29:15.543Z,84.10
2023-01-17T06:30:15.518Z,84.28
2023-01-17T06:31:15.577Z,84.36
2023-01-17T06:32:15.534Z,84.34
2023-01-17T06:33:15.506Z,84.40
2023-01-17T06:34:15.485Z,84.48
2023-01-17T06:35:15.976Z,84.52
2023-01-17T06:36:15.461Z,84.53
2023-01-17T06:37:15.462Z,84.53
2023-01-17T06:38:15.430Z,84.51
2023-01-17T06:39:15.432Z,84.49
2023-01-17T06:40:16.103Z,84.50
2023-01-17T06:41:15.419Z,84.49
2023-01-17T06:42:15.381Z,84.51
2023-01-17T06:43:16.186Z,84.52
2023-01-17T06:44:15.351Z,84.56
2023-01-17T06:45:16.134Z,84.61
2023-01-17T06:46:16.055Z,84.67
2023-01-17T06:47:15.362Z,84.73
2023-01-17T06:48:15.534Z,84.80
2023-01-17T06:49:15.324Z,84.84
2023-01-17T06:50:15.298Z,84.85
2023-01-17T06:51:16.051Z,84.82
2023-01-17T06:52:16.207Z,84.86
2023-01-17T06:53:15.532Z,84.87
2023-01-17T06:54:15.993Z,84.88
2023-01-17T06:55:16.180Z,84.91
2023-01-17T06:56:16.076Z,84.99
2023-01-17T06:57:15.721Z,85.16
2023-01-17T06:58:16.208Z,85.21
2023-01-17T06:59:15.232Z,85.16
2023-01-17T07:00:15.185Z,85.22
2023-01-17T07:01:15.263Z,85.27
2023-01-17T07:02:15.325Z,85.30
2023-01-17T07:03:15.222Z,85.32
2023-01-17T07:04:15.409Z,85.40
2023-01-17T07:05:15.444Z,85.52
2023-01-17T07:06:15.213Z,85.60
2023-01-17T07:07:15.221Z,85.63
2023-01-17T07:08:15.218Z,85.64
2023-01-17T07:09:15.225Z,85.63
2023-01-17T07:10:15.228Z,85.64
2023-01-17T07:11:15.226Z,85.68
2023-01-17T07:12:15.221Z,85.72
2023-01-17T07:13:15.220Z,85.73
2023-01-17T07:14:15.223Z,85.79
2023-01-17T07:15:15.062Z,85.79
2023-01-17T07:16:15.057Z,85.76
2023-01-17T07:17:15.057Z,85.75
2023-01-17T07:18:15.074Z,85.75
2023-01-17T07:19:15.104Z,85.82
2023-01-17T07:20:15.060Z,85.83
2023-01-17T07:21:15.168Z,85.80
2023-01-17T07:22:15.177Z,85.80
2023-01-17T07:23:15.210Z,85.78
2023-01-17T07:24:14.911Z,85.78
2023-01-17T07:25:15.246Z,85.79
2023-01-17T07:26:14.905Z,85.88
2023-01-17T07:27:14.894Z,85.91
2023-01-17T07:28:14.855Z,85.90
2023-01-17T07:29:14.855Z,85.94
2023-01-17T07:30:15.218Z,85.88
2023-01-17T07:31:14.888Z,85.92
2023-01-17T07:32:14.824Z,85.98
2023-01-17T07:33:14.826Z,86.00
2023-01-17T07:34:14.800Z,86.11
2023-01-17T07:35:14.806Z,86.17
2023-01-17T07:36:15.242Z,86.18
2023-01-17T07:37:15.469Z,86.22
2023-01-17T07:38:15.589Z,86.22
2023-01-17T07:39:15.240Z,86.27
2023-01-17T07:40:14.731Z,86.25
2023-01-17T07:41:14.731Z,86.26
2023-01-17T07:42:14.741Z,86.30
2023-01-17T07:43:14.713Z,86.31
2023-01-17T07:44:14.681Z,86.37
2023-01-17T07:45:14.691Z,86.46
2023-01-17T07:46:14.713Z,86.42
2023-01-17T07:47:14.689Z,86.48
2023-01-17T07:48:14.658Z,86.51
2023-01-17T07:49:14.637Z,86.43
2023-01-17T07:50:14.616Z,86.44
2023-01-17T07:51:14.623Z,86.56
2023-01-17T07:52:16.307Z,86.56
2023-01-17T07:53:14.620Z,86.44
2023-01-17T07:54:15.053Z,86.42
2023-01-17T07:55:15.262Z,86.36
2023-01-17T07:56:14.570Z,86.26
2023-01-17T07:57:14.548Z,86.02
2023-01-17T07:58:14.532Z,85.97
2023-01-17T07:59:15.267Z,85.87
2023-01-17T08:00:14.514Z,85.75
2023-01-17T08:01:14.595Z,85.69
2023-01-17T08:02:15.371Z,85.57
2023-01-17T08:03:15.260Z,85.48
2023-01-17T08:04:14.537Z,85.35
2023-01-17T08:05:14.448Z,85.19
2023-01-17T08:06:15.519Z,85.06
2023-01-17T08:07:14.443Z,84.74
2023-01-17T08:08:17.093Z,84.36
2023-01-17T08:09:14.419Z,83.87
2023-01-17T08:10:15.633Z,83.43
2023-01-17T08:11:14.414Z,83.11
2023-01-17T08:12:14.394Z,82.72
2023-01-17T08:13:14.367Z,82.20
2023-01-17T08:14:14.379Z,81.71
2023-01-17T08:15:14.538Z,81.26
2023-01-17T08:16:14.575Z,80.67
2023-01-17T08:17:14.320Z,79.92
2023-01-17T08:18:14.617Z,79.43
2023-01-17T08:19:14.299Z,78.89
2023-01-17T08:20:14.673Z,78.47
2023-01-17T08:21:14.282Z,77.93
2023-01-17T08:22:14.293Z,77.11
2023-01-17T08:23:14.238Z,76.64
2023-01-17T08:24:14.263Z,76.02
2023-01-17T08:25:14.230Z,76.11
2023-01-17T08:26:14.311Z,75.96
2023-01-17T08:27:14.213Z,75.66
2023-01-17T08:28:14.201Z,75.28
2023-01-17T08:29:14.195Z,74.96
2023-01-17T08:30:14.183Z,74.43
2023-01-17T08:31:14.195Z,74.13
2023-01-17T08:32:14.173Z,73.52
2023-01-17T08:33:14.141Z,73.18
2023-01-17T08:34:14.271Z,72.43
2023-01-17T08:35:14.127Z,71.62
2023-01-17T08:36:14.115Z,71.16
2023-01-17T08:37:14.079Z,70.78
2023-01-17T08:38:14.087Z,70.12
2023-01-17T08:39:14.891Z,69.71
2023-01-17T08:40:14.071Z,69.50
2023-01-17T08:41:14.044Z,68.92
2023-01-17T08:42:14.132Z,68.41
2023-01-17T08:43:14.280Z,68.47
2023-01-17T08:44:14.026Z,67.94
2023-01-17T08:45:14.278Z,67.95
2023-01-17T08:46:14.055Z,68.14
2023-01-17T08:47:14.188Z,67.81
2023-01-17T08:48:13.980Z,67.19
2023-01-17T08:49:14.280Z,66.88
2023-01-17T08:50:14.300Z,66.22
2023-01-17T08:51:14.291Z,65.75
2023-01-17T08:52:14.291Z,65.02
2023-01-17T08:53:13.901Z,64.80
2023-01-17T08:54:13.910Z,64.53
2023-01-17T08:55:13.886Z,64.12
2023-01-17T08:56:14.301Z,64.01
2023-01-17T08:57:13.857Z,64.06
2023-01-17T08:58:14.295Z,63.85
2023-01-17T08:59:14.322Z,63.60
2023-01-17T09:00:14.233Z,63.70
2023-01-17T09:01:13.921Z,64.30
2023-01-17T09:02:13.829Z,64.86
2023-01-17T09:03:13.789Z,64.80
2023-01-17T09:04:13.864Z,64.46
2023-01-17T09:05:13.819Z,64.72
2023-01-17T09:06:13.859Z,65.19
2023-01-17T09:07:13.758Z,66.08
2023-01-17T09:08:13.901Z,66.33
2023-01-17T09:09:13.740Z,66.46
2023-01-17T09:10:13.711Z,66.73
2023-01-17T09:11:13.685Z,66.74
2023-01-17T09:12:13.723Z,66.58
2023-01-17T09:13:13.665Z,66.73
2023-01-17T09:14:14.039Z,67.08
2023-01-17T09:15:14.072Z,67.57
2023-01-17T09:16:13.750Z,67.99
2023-01-17T09:17:14.612Z,68.38
2023-01-17T09:18:13.647Z,68.72
2023-01-17T09:19:13.603Z,68.77
2023-01-17T09:20:13.616Z,69.01
2023-01-17T09:21:13.580Z,68.85
2023-01-17T09:22:14.257Z,68.73
2023-01-17T09:23:13.558Z,69.15
2023-01-17T09:24:13.557Z,69.78
2023-01-17T09:25:13.552Z,69.13
2023-01-17T09:26:13.531Z,68.53
2023-01-17T09:27:13.513Z,68.36
2023-01-17T09:28:13.524Z,68.41
2023-01-17T09:29:13.483Z,68.66
2023-01-17T09:30:14.470Z,68.70
2023-01-17T09:31:14.422Z,69.07
2023-01-17T09:32:14.416Z,69.15
2023-01-17T09:33:13.461Z,69.58
2023-01-17T09:34:13.456Z,69.80
2023-01-17T09:35:13.465Z,70.16
2023-01-17T09:36:14.324Z,70.49
2023-01-17T09:37:13.412Z,70.94
2023-01-17T09:38:13.491Z,71.68
2023-01-17T09:39:13.546Z,72.10
2023-01-17T09:40:14.164Z,72.36
2023-01-17T09:41:14.311Z,71.97
2023-01-17T09:42:13.356Z,72.41
2023-01-17T09:43:13.336Z,73.03
2023-01-17T09:44:13.362Z,73.42
2023-01-17T09:45:13.330Z,73.56
2023-01-17T09:46:13.383Z,73.16
2023-01-17T09:47:13.309Z,73.03
2023-01-17T09:48:13.321Z,73.08
2023-01-17T09:49:13.322Z,73.02
2023-01-17T09:50:13.291Z,72.43
2023-01-17T09:51:13.331Z,72.27
2023-01-17T09:52:13.336Z,72.23
2023-01-17T09:53:13.328Z,71.85
2023-01-17T09:54:13.335Z,72.01
2023-01-17T09:55:13.327Z,72.04
2023-01-17T09:56:13.338Z,71.73
2023-01-17T09:57:13.181Z,71.90
2023-01-17T09:58:13.193Z,71.49
2023-01-17T09:59:15.410Z,71.51
2023-01-17T10:00:13.257Z,71.86
2023-01-17T10:01:13.420Z,71.96
2023-01-17T10:02:13.481Z,71.93
2023-01-17T10:03:13.270Z,72.21
2023-01-17T10:04:14.736Z,71.70
2023-01-17T10:05:13.136Z,71.62
2023-01-17T10:06:13.092Z,71.72
2023-01-17T10:07:13.107Z,71.21
2023-01-17T10:08:13.068Z,71.12
2023-01-17T10:09:13.043Z,71.05
2023-01-17T10:10:13.332Z,70.89
2023-01-17T10:11:13.003Z,71.02
2023-01-17T10:12:13.029Z,70.16
2023-01-17T10:13:12.998Z,69.27
2023-01-17T10:14:12.989Z,69.63
2023-01-17T10:15:12.981Z,69.73
2023-01-17T10:16:12.973Z,69.56
2023-01-17T10:17:12.951Z,69.27
2023-01-17T10:18:28.838Z,68.92
2023-01-17T10:19:14.356Z,68.78
2023-01-17T10:20:12.966Z,69.25
2023-01-17T10:21:13.465Z,69.22
2023-01-17T10:22:12.896Z,69.63
2023-01-17T10:23:12.879Z,70.05
2023-01-17T10:24:12.876Z,70.88
2023-01-17T10:25:12.851Z,70.60
2023-01-17T10:26:13.038Z,70.10
2023-01-17T10:27:12.833Z,69.20
2023-01-17T10:28:12.847Z,69.02
2023-01-17T10:29:12.813Z,69.20
2023-01-17T10:30:12.807Z,69.40
2023-01-17T10:31:12.878Z,69.64
2023-01-17T10:32:12.799Z,69.10
2023-01-17T10:33:12.899Z,69.02
2023-01-17T10:34:13.304Z,69.20
2023-01-17T10:35:14.195Z,68.95
2023-01-17T10:36:12.744Z,70.04
2023-01-17T10:37:12.709Z,70.05
2023-01-17T10:38:12.720Z,69.54
2023-01-17T10:39:12.754Z,68.37
2023-01-17T10:40:12.716Z,68.51
2023-01-17T10:41:12.677Z,68.88
2023-01-17T10:42:13.018Z,69.71
2023-01-17T10:43:12.668Z,69.63
2023-01-17T10:44:12.649Z,70.21
2023-01-17T10:45:12.643Z,70.74
2023-01-17T10:46:12.769Z,70.07
2023-01-17T10:47:12.609Z,69.89
2023-01-17T10:48:12.614Z,70.82
2023-01-17T10:49:12.581Z,71.47
2023-01-17T10:50:12.573Z,71.12
2023-01-17T10:51:12.581Z,69.96
2023-01-17T10:52:12.591Z,70.30
2023-01-17T10:53:12.534Z,70.89
2023-01-17T10:54:12.554Z,71.59
2023-01-17T10:55:12.528Z,71.29
2023-01-17T10:56:12.519Z,70.87
2023-01-17T10:57:12.525Z,70.14
2023-01-17T10:58:12.754Z,70.29
2023-01-17T10:59:12.749Z,69.97
2023-01-17T11:00:12.828Z,69.54
2023-01-17T11:01:12.880Z,70.32
2023-01-17T11:02:12.551Z,71.05
2023-01-17T11:03:12.536Z,71.34
2023-01-17T11:04:12.439Z,69.56
2023-01-17T11:05:12.403Z,69.34
2023-01-17T11:06:12.397Z,70.21
2023-01-17T11:07:12.393Z,70.15
2023-01-17T11:08:12.387Z,69.54
2023-01-17T11:09:12.350Z,69.32
2023-01-17T11:10:12.364Z,69.60
2023-01-17T11:11:12.327Z,69.75
2023-01-17T11:12:12.359Z,70.32
2023-01-17T11:13:12.308Z,70.30
2023-01-17T11:14:12.382Z,70.22
2023-01-17T11:15:12.483Z,69.15
2023-01-17T11:16:12.303Z,68.49
2023-01-17T11:17:12.300Z,67.80
2023-01-17T11:18:12.269Z,68.24
2023-01-17T11:19:12.390Z,69.29
2023-01-17T11:20:12.396Z,69.28
2023-01-17T11:21:12.376Z,68.79
2023-01-17T11:22:12.396Z,68.16
2023-01-17T11:23:12.380Z,67.59
2023-01-17T11:24:12.175Z,67.32
2023-01-17T11:25:12.163Z,66.52
2023-01-17T11:26:12.166Z,66.14
2023-01-17T11:27:12.226Z,65.69
2023-01-17T11:28:12.147Z,66.09
2023-01-17T11:29:12.149Z,66.14
2023-01-17T11:30:12.124Z,65.18
2023-01-17T11:31:12.126Z,64.71
2023-01-17T11:32:12.110Z,63.84
2023-01-17T11:33:12.083Z,63.67
2023-01-17T11:34:12.084Z,63.17
2023-01-17T11:35:12.398Z,63.08
2023-01-17T11:36:12.051Z,63.07
2023-01-17T11:37:12.074Z,62.71
2023-01-17T11:38:13.497Z,62.40
2023-01-17T11:39:12.255Z,61.79
2023-01-17T11:40:12.025Z,62.06
2023-01-17T11:41:12.123Z,61.91
2023-01-17T11:42:12.418Z,61.66
2023-01-17T11:43:11.982Z,61.92
2023-01-17T11:44:11.965Z,62.49
2023-01-17T11:45:11.976Z,62.05
2023-01-17T11:46:11.969Z,61.55
2023-01-17T11:47:11.918Z,61.07
2023-01-17T11:48:12.037Z,61.40
2023-01-17T11:49:11.897Z,61.36
2023-01-17T11:50:11.907Z,61.72
2023-01-17T11:51:11.905Z,61.76
2023-01-17T11:52:11.900Z,61.38
2023-01-17T11:53:11.838Z,61.78
2023-01-17T11:54:11.847Z,62.67
2023-01-17T11:55:11.811Z,62.70
2023-01-17T11:56:11.839Z,63.01
2023-01-17T11:57:11.801Z,62.91
2023-01-17T11:58:11.807Z,61.80
2023-01-17T11:59:11.782Z,61.70
2023-01-17T12:00:11.797Z,61.72
2023-01-17T12:01:11.818Z,61.30
2023-01-17T12:02:13.188Z,60.68
2023-01-17T12:03:11.719Z,60.96
2023-01-17T12:04:11.727Z,62.12
2023-01-17T12:05:11.740Z,62.47
2023-01-17T12:06:12.389Z,62.36
2023-01-17T12:07:11.703Z,61.86
2023-01-17T12:08:11.685Z,62.27
2023-01-17T12:09:11.672Z,63.01
2023-01-17T12:10:11.674Z,63.57
2023-01-17T12:11:11.652Z,63.12
2023-01-17T12:12:11.669Z,62.96
2023-01-17T12:13:11.616Z,62.70
2023-01-17T12:14:11.620Z,62.30
2023-01-17T12:15:11.630Z,61.98
2023-01-17T12:16:11.626Z,62.22
2023-01-17T12:17:11.599Z,62.53
2023-01-17T12:18:11.569Z,61.99
2023-01-17T12:19:12.437Z,61.95
2023-01-17T12:20:11.541Z,62.24
2023-01-17T12:21:12.448Z,62.29
2023-01-17T12:22:12.417Z,62.23
2023-01-17T12:23:11.568Z,62.18
2023-01-17T12:24:11.500Z,62.23
2023-01-17T12:25:11.501Z,62.07
2023-01-17T12:26:11.490Z,62.04
2023-01-17T12:27:11.478Z,62.57
2023-01-17T12:28:11.479Z,62.95
2023-01-17T12:29:11.448Z,62.98
2023-01-17T12:30:11.419Z,62.12
2023-01-17T12:31:11.538Z,61.59
2023-01-17T12:32:11.471Z,61.22
2023-01-17T12:33:11.410Z,60.72
2023-01-17T12:34:11.446Z,60.39
2023-01-17T12:35:11.377Z,60.12
2023-01-17T12:36:11.360Z,60.35
2023-01-17T12:37:11.373Z,60.81
2023-01-17T12:38:18.087Z,62.01
2023-01-17T12:39:12.353Z,62.57
2023-01-17T12:40:11.338Z,62.66
2023-01-17T12:41:11.329Z,63.25
2023-01-17T12:42:11.303Z,62.86
2023-01-17T12:43:11.304Z,62.67
2023-01-17T12:44:11.269Z,62.86
2023-01-17T12:45:11.263Z,63.09
2023-01-17T12:46:11.294Z,63.25
2023-01-17T12:47:11.251Z,63.19
2023-01-17T12:48:11.215Z,62.88
2023-01-17T12:49:11.382Z,62.22
2023-01-17T12:50:11.614Z,62.29
2023-01-17T12:51:11.209Z,61.85
2023-01-17T12:52:11.169Z,62.05